sensor_id;sensor_type;location;lat;lon;timestamp;temperature;humidity
20380;DHT22;10349;48.666;8.948;2024-01-16T00:00:49;-2.60;99.90
20380;DHT22;10349;48.666;8.948;2024-01-16T00:03:14;-2.60;99.90
20380;DHT22;10349;48.666;8.948;2024-01-16T00:05:40;-2.60;99.90
20380;DHT22;10349;48.666;8.948;2024-01-16T00:08:06;-2.60;99.90
20380;DHT22;10349;48.666;8.948;2024-01-16T00:10:31;-2.60;99.90
20380;DHT22;10349;48.666;8.948;2024-01-16T00:12:57;-2.60;99.90
20380;DHT22;10349;48.666;8.948;2024-01-16T00:15:22;-2.50;99.90
20380;DHT22;10349;48.666;8.948;2024-01-16T00:17:49;-2.50;99.90
20380;DHT22;10349;48.666;8.948;2024-01-16T00:20:14;-2.60;99.90
20380;DHT22;10349;48.666;8.948;2024-01-16T00:22:40;-2.50;99.90
20380;DHT22;10349;48.666;8.948;2024-01-16T00:25:06;-2.50;99.90
20380;DHT22;10349;48.666;8.948;2024-01-16T00:27:32;-2.50;99.90
20380;DHT22;10349;48.666;8.948;2024-01-16T00:29:57;-2.50;99.90
20380;DHT22;10349;48.666;8.948;2024-01-16T00:32:23;-2.40;99.90
20380;DHT22;10349;48.666;8.948;2024-01-16T00:34:48;-2.40;99.90
20380;DHT22;10349;48.666;8.948;2024-01-16T00:37:14;-2.40;99.90
20380;DHT22;10349;48.666;8.948;2024-01-16T00:39:40;-2.50;99.90
20380;DHT22;10349;48.666;8.948;2024-01-16T00:42:05;-2.40;99.90
20380;DHT22;10349;48.666;8.948;2024-01-16T00:44:31;-2.40;99.90
20380;DHT22;10349;48.666;8.948;2024-01-16T00:46:57;-2.30;99.90
20380;DHT22;10349;48.666;8.948;2024-01-16T00:49:22;-2.30;99.90
20380;DHT22;10349;48.666;8.948;2024-01-16T00:51:48;-2.30;99.90
20380;DHT22;10349;48.666;8.948;2024-01-16T00:54:14;-2.30;99.90
20380;DHT22;10349;48.666;8.948;2024-01-16T00:56:41;-2.30;99.90
20380;DHT22;10349;48.666;8.948;2024-01-16T00:59:07;-2.30;99.90
20380;DHT22;10349;48.666;8.948;2024-01-16T01:01:33;-2.30;99.90
20380;DHT22;10349;48.666;8.948;2024-01-16T01:03:58;-2.30;99.90
20380;DHT22;10349;48.666;8.948;2024-01-16T01:06:24;-2.30;99.90
20380;DHT22;10349;48.666;8.948;2024-01-16T01:08:50;-2.30;99.90
20380;DHT22;10349;48.666;8.948;2024-01-16T01:11:16;-2.30;99.90
20380;DHT22;10349;48.666;8.948;2024-01-16T01:13:42;-2.30;99.90
20380;DHT22;10349;48.666;8.948;2024-01-16T01:16:08;-2.30;99.90
20380;DHT22;10349;48.666;8.948;2024-01-16T01:18:34;-2.30;99.90
20380;DHT22;10349;48.666;8.948;2024-01-16T01:21:00;-2.20;99.90
20380;DHT22;10349;48.666;8.948;2024-01-16T01:23:26;-2.30;99.90
20380;DHT22;10349;48.666;8.948;2024-01-16T01:25:52;-2.20;99.90
20380;DHT22;10349;48.666;8.948;2024-01-16T01:28:17;-2.20;99.90
20380;DHT22;10349;48.666;8.948;2024-01-16T01:30:43;-2.20;99.90
20380;DHT22;10349;48.666;8.948;2024-01-16T01:33:08;-2.30;99.90
20380;DHT22;10349;48.666;8.948;2024-01-16T01:35:35;-2.30;99.90
20380;DHT22;10349;48.666;8.948;2024-01-16T01:38:01;-2.30;99.90
20380;DHT22;10349;48.666;8.948;2024-01-16T01:40:27;-2.30;99.90
20380;DHT22;10349;48.666;8.948;2024-01-16T01:42:52;-2.40;99.90
20380;DHT22;10349;48.666;8.948;2024-01-16T01:45:18;-2.40;99.90
20380;DHT22;10349;48.666;8.948;2024-01-16T01:47:43;-2.40;99.90
20380;DHT22;10349;48.666;8.948;2024-01-16T01:50:09;-2.30;99.90
20380;DHT22;10349;48.666;8.948;2024-01-16T01:52:40;-2.30;99.90
20380;DHT22;10349;48.666;8.948;2024-01-16T01:55:11;-2.40;99.90
20380;DHT22;10349;48.666;8.948;2024-01-16T01:57:37;-2.40;99.90
20380;DHT22;10349;48.666;8.948;2024-01-16T02:00:03;-2.40;99.90
20380;DHT22;10349;48.666;8.948;2024-01-16T02:02:39;-2.50;99.90
20380;DHT22;10349;48.666;8.948;2024-01-16T02:05:06;-2.50;99.90
20380;DHT22;10349;48.666;8.948;2024-01-16T02:07:33;-2.50;99.90
20380;DHT22;10349;48.666;8.948;2024-01-16T02:10:00;-2.50;99.90
20380;DHT22;10349;48.666;8.948;2024-01-16T02:12:26;-2.50;99.90
20380;DHT22;10349;48.666;8.948;2024-01-16T02:14:51;-2.50;99.90
20380;DHT22;10349;48.666;8.948;2024-01-16T02:17:17;-2.50;99.90
20380;DHT22;10349;48.666;8.948;2024-01-16T02:19:43;-2.50;99.90
20380;DHT22;10349;48.666;8.948;2024-01-16T02:22:14;-2.60;99.90
20380;DHT22;10349;48.666;8.948;2024-01-16T02:24:41;-2.60;99.90
20380;DHT22;10349;48.666;8.948;2024-01-16T02:27:07;-2.60;99.90
20380;DHT22;10349;48.666;8.948;2024-01-16T02:29:33;-2.60;99.90
20380;DHT22;10349;48.666;8.948;2024-01-16T02:31:58;-2.70;99.90
20380;DHT22;10349;48.666;8.948;2024-01-16T02:34:24;-2.70;99.90
20380;DHT22;10349;48.666;8.948;2024-01-16T02:36:49;-2.70;99.90
20380;DHT22;10349;48.666;8.948;2024-01-16T02:39:15;-2.80;99.90
20380;DHT22;10349;48.666;8.948;2024-01-16T02:41:40;-2.80;99.90
20380;DHT22;10349;48.666;8.948;2024-01-16T02:44:06;-2.80;99.90
20380;DHT22;10349;48.666;8.948;2024-01-16T02:46:32;-2.80;99.90
20380;DHT22;10349;48.666;8.948;2024-01-16T02:48:58;-2.90;99.90
20380;DHT22;10349;48.666;8.948;2024-01-16T02:51:23;-2.90;99.90
20380;DHT22;10349;48.666;8.948;2024-01-16T02:53:49;-2.90;99.90
20380;DHT22;10349;48.666;8.948;2024-01-16T02:56:14;-2.90;99.90
20380;DHT22;10349;48.666;8.948;2024-01-16T02:58:40;-2.90;99.90
20380;DHT22;10349;48.666;8.948;2024-01-16T03:01:06;-3.00;99.90
20380;DHT22;10349;48.666;8.948;2024-01-16T03:03:32;-3.00;99.90
20380;DHT22;10349;48.666;8.948;2024-01-16T03:05:58;-3.00;99.90
20380;DHT22;10349;48.666;8.948;2024-01-16T03:08:24;-3.10;99.90
20380;DHT22;10349;48.666;8.948;2024-01-16T03:10:50;-3.30;99.90
20380;DHT22;10349;48.666;8.948;2024-01-16T03:13:16;-3.40;99.90
20380;DHT22;10349;48.666;8.948;2024-01-16T03:15:41;-3.50;99.90
20380;DHT22;10349;48.666;8.948;2024-01-16T03:18:07;-3.60;99.90
20380;DHT22;10349;48.666;8.948;2024-01-16T03:20:32;-3.60;99.90
20380;DHT22;10349;48.666;8.948;2024-01-16T03:22:58;-3.70;99.90
20380;DHT22;10349;48.666;8.948;2024-01-16T03:25:24;-3.70;99.90
20380;DHT22;10349;48.666;8.948;2024-01-16T03:27:49;-3.80;99.90
20380;DHT22;10349;48.666;8.948;2024-01-16T03:30:15;-3.80;99.90
20380;DHT22;10349;48.666;8.948;2024-01-16T03:32:40;-3.90;99.90
20380;DHT22;10349;48.666;8.948;2024-01-16T03:35:07;-3.90;99.90
20380;DHT22;10349;48.666;8.948;2024-01-16T03:37:33;-4.00;99.90
20380;DHT22;10349;48.666;8.948;2024-01-16T03:39:59;-4.00;99.90
20380;DHT22;10349;48.666;8.948;2024-01-16T03:42:25;-4.10;99.90
20380;DHT22;10349;48.666;8.948;2024-01-16T03:44:51;-4.20;99.90
20380;DHT22;10349;48.666;8.948;2024-01-16T03:47:17;-4.20;99.90
20380;DHT22;10349;48.666;8.948;2024-01-16T03:49:43;-4.20;99.90
20380;DHT22;10349;48.666;8.948;2024-01-16T03:52:08;-4.30;99.90
20380;DHT22;10349;48.666;8.948;2024-01-16T03:54:34;-4.30;99.90
20380;DHT22;10349;48.666;8.948;2024-01-16T03:57:00;-4.30;99.90
20380;DHT22;10349;48.666;8.948;2024-01-16T03:59:25;-4.40;99.90
20380;DHT22;10349;48.666;8.948;2024-01-16T04:01:51;-4.40;99.90
20380;DHT22;10349;48.666;8.948;2024-01-16T04:04:16;-4.50;99.90
20380;DHT22;10349;48.666;8.948;2024-01-16T04:06:42;-4.60;99.90
20380;DHT22;10349;48.666;8.948;2024-01-16T04:09:08;-4.60;99.90
20380;DHT22;10349;48.666;8.948;2024-01-16T04:11:35;-4.60;99.90
20380;DHT22;10349;48.666;8.948;2024-01-16T04:14:01;-4.70;99.90
20380;DHT22;10349;48.666;8.948;2024-01-16T04:16:27;-4.70;99.90
20380;DHT22;10349;48.666;8.948;2024-01-16T04:18:53;-4.80;99.90
20380;DHT22;10349;48.666;8.948;2024-01-16T04:21:18;-4.80;99.90
20380;DHT22;10349;48.666;8.948;2024-01-16T04:23:44;-4.90;99.90
20380;DHT22;10349;48.666;8.948;2024-01-16T04:26:09;-4.90;99.90
20380;DHT22;10349;48.666;8.948;2024-01-16T04:28:35;-4.90;99.90
20380;DHT22;10349;48.666;8.948;2024-01-16T04:31:03;-4.90;99.90
20380;DHT22;10349;48.666;8.948;2024-01-16T04:33:28;-4.90;99.90
20380;DHT22;10349;48.666;8.948;2024-01-16T04:35:55;-4.90;99.90
20380;DHT22;10349;48.666;8.948;2024-01-16T04:38:20;-4.80;99.90
20380;DHT22;10349;48.666;8.948;2024-01-16T04:40:46;-4.90;99.90
20380;DHT22;10349;48.666;8.948;2024-01-16T04:43:12;-4.90;99.90
20380;DHT22;10349;48.666;8.948;2024-01-16T04:45:37;-5.00;99.90
20380;DHT22;10349;48.666;8.948;2024-01-16T04:48:03;-5.10;99.90
20380;DHT22;10349;48.666;8.948;2024-01-16T04:50:29;-5.20;99.90
20380;DHT22;10349;48.666;8.948;2024-01-16T04:53:01;-5.30;99.90
20380;DHT22;10349;48.666;8.948;2024-01-16T04:55:27;-5.30;99.90
20380;DHT22;10349;48.666;8.948;2024-01-16T04:57:54;-5.40;99.90
20380;DHT22;10349;48.666;8.948;2024-01-16T05:00:19;-5.50;99.90
20380;DHT22;10349;48.666;8.948;2024-01-16T05:02:45;-5.50;99.90
20380;DHT22;10349;48.666;8.948;2024-01-16T05:05:12;-5.50;99.90
20380;DHT22;10349;48.666;8.948;2024-01-16T05:07:38;-5.50;99.90
20380;DHT22;10349;48.666;8.948;2024-01-16T05:10:04;-5.50;99.90
20380;DHT22;10349;48.666;8.948;2024-01-16T05:12:30;-5.60;99.90
20380;DHT22;10349;48.666;8.948;2024-01-16T05:14:55;-5.50;99.90
20380;DHT22;10349;48.666;8.948;2024-01-16T05:17:21;-5.50;99.90
20380;DHT22;10349;48.666;8.948;2024-01-16T05:19:46;-5.50;99.90
20380;DHT22;10349;48.666;8.948;2024-01-16T05:22:12;-5.60;99.90
20380;DHT22;10349;48.666;8.948;2024-01-16T05:24:38;-5.60;99.90
20380;DHT22;10349;48.666;8.948;2024-01-16T05:27:03;-5.60;99.90
20380;DHT22;10349;48.666;8.948;2024-01-16T05:29:30;-5.70;99.90
20380;DHT22;10349;48.666;8.948;2024-01-16T05:31:56;-5.70;99.90
20380;DHT22;10349;48.666;8.948;2024-01-16T05:34:22;-5.80;99.90
20380;DHT22;10349;48.666;8.948;2024-01-16T05:36:48;-5.80;99.90
20380;DHT22;10349;48.666;8.948;2024-01-16T05:39:13;-5.70;99.90
20380;DHT22;10349;48.666;8.948;2024-01-16T05:41:39;-5.80;99.90
20380;DHT22;10349;48.666;8.948;2024-01-16T05:44:04;-5.80;99.90
20380;DHT22;10349;48.666;8.948;2024-01-16T05:46:31;-5.80;99.90
20380;DHT22;10349;48.666;8.948;2024-01-16T05:48:57;-5.90;99.90
20380;DHT22;10349;48.666;8.948;2024-01-16T05:51:25;-5.90;99.90
20380;DHT22;10349;48.666;8.948;2024-01-16T05:53:50;-6.10;99.90
20380;DHT22;10349;48.666;8.948;2024-01-16T05:56:16;-6.20;99.90
20380;DHT22;10349;48.666;8.948;2024-01-16T05:58:42;-6.20;99.90
20380;DHT22;10349;48.666;8.948;2024-01-16T06:01:07;-6.10;99.90
20380;DHT22;10349;48.666;8.948;2024-01-16T06:03:33;-6.10;99.90
20380;DHT22;10349;48.666;8.948;2024-01-16T06:05:59;-6.20;99.90
20380;DHT22;10349;48.666;8.948;2024-01-16T06:08:25;-6.20;99.90
20380;DHT22;10349;48.666;8.948;2024-01-16T06:10:50;-6.20;99.90
20380;DHT22;10349;48.666;8.948;2024-01-16T06:13:18;-6.20;99.90
20380;DHT22;10349;48.666;8.948;2024-01-16T06:15:44;-6.20;99.90
20380;DHT22;10349;48.666;8.948;2024-01-16T06:18:10;-6.20;99.90
20380;DHT22;10349;48.666;8.948;2024-01-16T06:20:35;-6.10;99.90
20380;DHT22;10349;48.666;8.948;2024-01-16T06:23:01;-6.10;99.90
20380;DHT22;10349;48.666;8.948;2024-01-16T06:25:27;-6.10;99.90
20380;DHT22;10349;48.666;8.948;2024-01-16T06:27:52;-6.10;99.90
20380;DHT22;10349;48.666;8.948;2024-01-16T06:30:18;-6.10;99.90
20380;DHT22;10349;48.666;8.948;2024-01-16T06:32:43;-6.10;99.90
20380;DHT22;10349;48.666;8.948;2024-01-16T06:35:09;-6.10;99.90
20380;DHT22;10349;48.666;8.948;2024-01-16T06:37:36;-6.10;99.90
20380;DHT22;10349;48.666;8.948;2024-01-16T06:40:01;-6.10;99.90
20380;DHT22;10349;48.666;8.948;2024-01-16T06:42:28;-6.10;99.90
20380;DHT22;10349;48.666;8.948;2024-01-16T06:44:53;-6.10;99.90
20380;DHT22;10349;48.666;8.948;2024-01-16T06:47:19;-6.10;99.90
20380;DHT22;10349;48.666;8.948;2024-01-16T06:49:44;-6.00;99.90
20380;DHT22;10349;48.666;8.948;2024-01-16T06:52:10;-6.00;99.90
20380;DHT22;10349;48.666;8.948;2024-01-16T06:54:36;-6.00;99.90
20380;DHT22;10349;48.666;8.948;2024-01-16T06:57:01;-6.00;99.90
20380;DHT22;10349;48.666;8.948;2024-01-16T06:59:27;-6.00;99.90
20380;DHT22;10349;48.666;8.948;2024-01-16T07:01:52;-5.90;99.90
20380;DHT22;10349;48.666;8.948;2024-01-16T07:04:20;-6.00;99.90
20380;DHT22;10349;48.666;8.948;2024-01-16T07:06:45;-5.90;99.90
20380;DHT22;10349;48.666;8.948;2024-01-16T07:09:12;-5.90;99.90
20380;DHT22;10349;48.666;8.948;2024-01-16T07:11:38;-6.00;99.90
20380;DHT22;10349;48.666;8.948;2024-01-16T07:14:06;-5.90;99.90
20380;DHT22;10349;48.666;8.948;2024-01-16T07:16:32;-5.90;99.90
20380;DHT22;10349;48.666;8.948;2024-01-16T07:18:58;-5.90;99.90
20380;DHT22;10349;48.666;8.948;2024-01-16T07:21:23;-5.90;99.90
20380;DHT22;10349;48.666;8.948;2024-01-16T07:23:49;-5.90;99.90
20380;DHT22;10349;48.666;8.948;2024-01-16T07:26:16;-5.90;99.90
20380;DHT22;10349;48.666;8.948;2024-01-16T07:28:41;-5.90;99.90
20380;DHT22;10349;48.666;8.948;2024-01-16T07:31:07;-5.80;99.90
20380;DHT22;10349;48.666;8.948;2024-01-16T07:33:35;-5.90;99.90
20380;DHT22;10349;48.666;8.948;2024-01-16T07:36:01;-5.90;99.90
20380;DHT22;10349;48.666;8.948;2024-01-16T07:38:26;-5.90;99.90
20380;DHT22;10349;48.666;8.948;2024-01-16T07:40:53;-5.90;99.90
20380;DHT22;10349;48.666;8.948;2024-01-16T07:43:18;-5.90;99.90
20380;DHT22;10349;48.666;8.948;2024-01-16T07:45:44;-5.90;99.90
20380;DHT22;10349;48.666;8.948;2024-01-16T07:48:09;-5.90;99.90
20380;DHT22;10349;48.666;8.948;2024-01-16T07:50:35;-5.90;99.90
20380;DHT22;10349;48.666;8.948;2024-01-16T07:53:01;-5.80;99.90
20380;DHT22;10349;48.666;8.948;2024-01-16T07:55:26;-5.80;99.90
20380;DHT22;10349;48.666;8.948;2024-01-16T07:57:54;-5.70;99.90
20380;DHT22;10349;48.666;8.948;2024-01-16T08:00:19;-5.70;99.90
20380;DHT22;10349;48.666;8.948;2024-01-16T08:02:47;-5.60;99.90
20380;DHT22;10349;48.666;8.948;2024-01-16T08:05:14;-5.60;99.90
20380;DHT22;10349;48.666;8.948;2024-01-16T08:07:42;-5.50;99.90
20380;DHT22;10349;48.666;8.948;2024-01-16T08:10:09;-5.50;99.90
20380;DHT22;10349;48.666;8.948;2024-01-16T08:12:35;-5.50;99.90
20380;DHT22;10349;48.666;8.948;2024-01-16T08:15:03;-5.40;99.90
20380;DHT22;10349;48.666;8.948;2024-01-16T08:17:29;-5.50;99.90
20380;DHT22;10349;48.666;8.948;2024-01-16T08:19:54;-5.40;99.90
20380;DHT22;10349;48.666;8.948;2024-01-16T08:22:20;-5.30;99.90
20380;DHT22;10349;48.666;8.948;2024-01-16T08:24:46;-5.30;99.90
20380;DHT22;10349;48.666;8.948;2024-01-16T08:27:11;-5.30;99.90
20380;DHT22;10349;48.666;8.948;2024-01-16T08:29:37;-5.20;99.90
20380;DHT22;10349;48.666;8.948;2024-01-16T08:32:03;-5.20;99.90
20380;DHT22;10349;48.666;8.948;2024-01-16T08:34:29;-5.20;99.90
20380;DHT22;10349;48.666;8.948;2024-01-16T08:36:55;-5.20;99.90
20380;DHT22;10349;48.666;8.948;2024-01-16T08:39:22;-5.10;99.90
20380;DHT22;10349;48.666;8.948;2024-01-16T08:41:49;-5.10;99.90
20380;DHT22;10349;48.666;8.948;2024-01-16T08:44:15;-5.10;99.90
20380;DHT22;10349;48.666;8.948;2024-01-16T08:46:41;-5.10;99.90
20380;DHT22;10349;48.666;8.948;2024-01-16T08:49:06;-5.10;99.90
20380;DHT22;10349;48.666;8.948;2024-01-16T08:51:32;-5.10;99.90
20380;DHT22;10349;48.666;8.948;2024-01-16T08:53:58;-5.10;99.90
20380;DHT22;10349;48.666;8.948;2024-01-16T08:56:23;-5.10;99.90
20380;DHT22;10349;48.666;8.948;2024-01-16T08:58:49;-5.00;99.90
20380;DHT22;10349;48.666;8.948;2024-01-16T09:01:15;-5.00;99.90
20380;DHT22;10349;48.666;8.948;2024-01-16T09:03:41;-4.90;99.90
20380;DHT22;10349;48.666;8.948;2024-01-16T09:06:08;-4.90;99.90
20380;DHT22;10349;48.666;8.948;2024-01-16T09:08:35;-4.80;99.90
20380;DHT22;10349;48.666;8.948;2024-01-16T09:11:01;-4.80;99.90
20380;DHT22;10349;48.666;8.948;2024-01-16T09:13:27;-4.70;99.90
20380;DHT22;10349;48.666;8.948;2024-01-16T09:15:52;-4.70;99.90
20380;DHT22;10349;48.666;8.948;2024-01-16T09:18:18;-4.70;99.90
20380;DHT22;10349;48.666;8.948;2024-01-16T09:20:44;-4.60;99.90
20380;DHT22;10349;48.666;8.948;2024-01-16T09:23:10;-4.50;99.90
20380;DHT22;10349;48.666;8.948;2024-01-16T09:25:36;-4.40;99.90
20380;DHT22;10349;48.666;8.948;2024-01-16T09:28:01;-4.30;99.90
20380;DHT22;10349;48.666;8.948;2024-01-16T09:30:27;-4.20;99.90
20380;DHT22;10349;48.666;8.948;2024-01-16T09:32:53;-4.10;99.90
20380;DHT22;10349;48.666;8.948;2024-01-16T09:35:19;-4.00;99.90
20380;DHT22;10349;48.666;8.948;2024-01-16T09:37:45;-4.00;99.90
20380;DHT22;10349;48.666;8.948;2024-01-16T09:40:11;-3.90;99.90
20380;DHT22;10349;48.666;8.948;2024-01-16T09:42:37;-3.80;99.90
20380;DHT22;10349;48.666;8.948;2024-01-16T09:45:02;-3.70;99.90
20380;DHT22;10349;48.666;8.948;2024-01-16T09:47:30;-3.60;99.90
20380;DHT22;10349;48.666;8.948;2024-01-16T09:50:02;-3.50;99.90
20380;DHT22;10349;48.666;8.948;2024-01-16T09:52:29;-3.40;99.90
20380;DHT22;10349;48.666;8.948;2024-01-16T09:54:55;-3.40;99.90
20380;DHT22;10349;48.666;8.948;2024-01-16T09:57:25;-3.30;99.90
20380;DHT22;10349;48.666;8.948;2024-01-16T09:59:56;-3.20;99.90
20380;DHT22;10349;48.666;8.948;2024-01-16T10:02:23;-3.20;99.90
20380;DHT22;10349;48.666;8.948;2024-01-16T10:04:49;-3.10;99.90
20380;DHT22;10349;48.666;8.948;2024-01-16T10:07:15;-3.00;99.90
20380;DHT22;10349;48.666;8.948;2024-01-16T10:09:43;-3.00;99.90
20380;DHT22;10349;48.666;8.948;2024-01-16T10:12:09;-2.80;99.90
20380;DHT22;10349;48.666;8.948;2024-01-16T10:14:36;-2.60;99.90
20380;DHT22;10349;48.666;8.948;2024-01-16T10:17:03;-2.50;99.90
20380;DHT22;10349;48.666;8.948;2024-01-16T10:19:37;-2.30;99.90
20380;DHT22;10349;48.666;8.948;2024-01-16T10:22:12;-2.20;99.90
20380;DHT22;10349;48.666;8.948;2024-01-16T10:24:37;-2.10;99.90
20380;DHT22;10349;48.666;8.948;2024-01-16T10:27:03;-1.90;99.90
20380;DHT22;10349;48.666;8.948;2024-01-16T10:29:29;-1.80;99.90
20380;DHT22;10349;48.666;8.948;2024-01-16T10:31:58;-1.70;99.90
20380;DHT22;10349;48.666;8.948;2024-01-16T10:34:25;-1.60;99.90
20380;DHT22;10349;48.666;8.948;2024-01-16T10:36:58;-1.50;99.90
20380;DHT22;10349;48.666;8.948;2024-01-16T10:39:24;-1.40;99.90
20380;DHT22;10349;48.666;8.948;2024-01-16T10:41:57;-1.40;99.90
20380;DHT22;10349;48.666;8.948;2024-01-16T10:44:23;-1.20;99.90
20380;DHT22;10349;48.666;8.948;2024-01-16T10:46:49;-1.10;99.90
20380;DHT22;10349;48.666;8.948;2024-01-16T10:49:14;-0.90;99.90
20380;DHT22;10349;48.666;8.948;2024-01-16T10:51:43;-0.80;99.90
20380;DHT22;10349;48.666;8.948;2024-01-16T10:54:11;-0.70;99.90
20380;DHT22;10349;48.666;8.948;2024-01-16T10:56:43;-0.70;99.90
20380;DHT22;10349;48.666;8.948;2024-01-16T10:59:25;-0.60;99.90
20380;DHT22;10349;48.666;8.948;2024-01-16T11:01:59;-0.40;99.90
20380;DHT22;10349;48.666;8.948;2024-01-16T11:04:27;-0.30;99.90
20380;DHT22;10349;48.666;8.948;2024-01-16T11:06:54;-0.20;99.90
20380;DHT22;10349;48.666;8.948;2024-01-16T11:09:21;0.00;99.90
20380;DHT22;10349;48.666;8.948;2024-01-16T11:11:47;0.20;99.90
20380;DHT22;10349;48.666;8.948;2024-01-16T11:14:19;0.40;99.90
20380;DHT22;10349;48.666;8.948;2024-01-16T11:16:49;0.50;99.90
20380;DHT22;10349;48.666;8.948;2024-01-16T11:19:16;0.70;99.90
20380;DHT22;10349;48.666;8.948;2024-01-16T11:21:43;0.80;99.90
20380;DHT22;10349;48.666;8.948;2024-01-16T11:24:09;0.90;99.90
20380;DHT22;10349;48.666;8.948;2024-01-16T11:26:35;1.00;99.90
20380;DHT22;10349;48.666;8.948;2024-01-16T11:31:53;1.30;99.90
20380;DHT22;10349;48.666;8.948;2024-01-16T11:34:55;1.30;99.90
20380;DHT22;10349;48.666;8.948;2024-01-16T11:37:34;1.30;99.90
20380;DHT22;10349;48.666;8.948;2024-01-16T11:42:50;1.20;99.90
20380;DHT22;10349;48.666;8.948;2024-01-16T11:48:23;1.00;99.90
20380;DHT22;10349;48.666;8.948;2024-01-16T11:50:48;1.00;99.90
20380;DHT22;10349;48.666;8.948;2024-01-16T11:53:33;1.00;99.90
20380;DHT22;10349;48.666;8.948;2024-01-16T11:58:48;0.90;99.90
20380;DHT22;10349;48.666;8.948;2024-01-16T12:01:19;0.90;99.90
20380;DHT22;10349;48.666;8.948;2024-01-16T12:04:02;0.90;99.90
20380;DHT22;10349;48.666;8.948;2024-01-16T12:06:28;0.80;99.90
20380;DHT22;10349;48.666;8.948;2024-01-16T12:08:53;0.80;99.90
20380;DHT22;10349;48.666;8.948;2024-01-16T12:11:19;0.70;99.90
20380;DHT22;10349;48.666;8.948;2024-01-16T12:14:01;0.70;99.90
20380;DHT22;10349;48.666;8.948;2024-01-16T12:16:27;0.70;99.90
20380;DHT22;10349;48.666;8.948;2024-01-16T12:19:07;0.60;99.90
20380;DHT22;10349;48.666;8.948;2024-01-16T12:21:35;0.50;99.90
20380;DHT22;10349;48.666;8.948;2024-01-16T12:24:04;0.50;99.90
20380;DHT22;10349;48.666;8.948;2024-01-16T12:26:30;0.40;99.90
20380;DHT22;10349;48.666;8.948;2024-01-16T12:28:57;0.40;99.90
20380;DHT22;10349;48.666;8.948;2024-01-16T12:31:23;0.40;99.90
20380;DHT22;10349;48.666;8.948;2024-01-16T12:33:51;0.40;99.90
20380;DHT22;10349;48.666;8.948;2024-01-16T12:36:17;0.30;99.90
20380;DHT22;10349;48.666;8.948;2024-01-16T12:38:43;0.30;99.90
20380;DHT22;10349;48.666;8.948;2024-01-16T12:41:13;0.30;99.90
20380;DHT22;10349;48.666;8.948;2024-01-16T12:43:38;0.20;99.90
20380;DHT22;10349;48.666;8.948;2024-01-16T12:46:04;0.30;99.90
20380;DHT22;10349;48.666;8.948;2024-01-16T12:48:32;0.20;99.90
20380;DHT22;10349;48.666;8.948;2024-01-16T12:51:02;0.20;99.90
20380;DHT22;10349;48.666;8.948;2024-01-16T12:53:28;0.20;99.90
20380;DHT22;10349;48.666;8.948;2024-01-16T12:56:01;0.20;99.90
20380;DHT22;10349;48.666;8.948;2024-01-16T12:58:34;0.20;99.90
20380;DHT22;10349;48.666;8.948;2024-01-16T13:01:29;0.30;99.90
20380;DHT22;10349;48.666;8.948;2024-01-16T13:03:56;0.30;99.90
20380;DHT22;10349;48.666;8.948;2024-01-16T13:06:23;0.40;99.90
20380;DHT22;10349;48.666;8.948;2024-01-16T13:09:05;0.40;99.90
20380;DHT22;10349;48.666;8.948;2024-01-16T13:11:48;0.40;99.90
20380;DHT22;10349;48.666;8.948;2024-01-16T13:14:14;0.40;99.90
20380;DHT22;10349;48.666;8.948;2024-01-16T13:16:39;0.40;99.90
20380;DHT22;10349;48.666;8.948;2024-01-16T13:19:05;0.40;99.90
20380;DHT22;10349;48.666;8.948;2024-01-16T13:21:35;0.40;99.90
20380;DHT22;10349;48.666;8.948;2024-01-16T13:24:03;0.50;99.90
20380;DHT22;10349;48.666;8.948;2024-01-16T13:26:29;0.40;99.90
20380;DHT22;10349;48.666;8.948;2024-01-16T13:28:55;0.40;99.90
20380;DHT22;10349;48.666;8.948;2024-01-16T13:31:20;0.40;99.90
20380;DHT22;10349;48.666;8.948;2024-01-16T13:33:46;0.40;99.90
20380;DHT22;10349;48.666;8.948;2024-01-16T13:36:12;0.40;99.90
20380;DHT22;10349;48.666;8.948;2024-01-16T13:38:38;0.30;99.90
20380;DHT22;10349;48.666;8.948;2024-01-16T13:41:03;0.30;99.90
20380;DHT22;10349;48.666;8.948;2024-01-16T13:43:29;0.30;99.90
20380;DHT22;10349;48.666;8.948;2024-01-16T13:45:54;0.30;99.90
20380;DHT22;10349;48.666;8.948;2024-01-16T13:48:20;0.30;99.90
20380;DHT22;10349;48.666;8.948;2024-01-16T13:50:47;0.30;99.90
20380;DHT22;10349;48.666;8.948;2024-01-16T13:53:13;0.30;99.90
20380;DHT22;10349;48.666;8.948;2024-01-16T13:55:42;0.20;99.90
20380;DHT22;10349;48.666;8.948;2024-01-16T13:58:08;0.20;99.90
20380;DHT22;10349;48.666;8.948;2024-01-16T14:00:34;0.20;99.90
20380;DHT22;10349;48.666;8.948;2024-01-16T14:02:59;0.20;99.90
20380;DHT22;10349;48.666;8.948;2024-01-16T14:05:25;0.20;99.90
20380;DHT22;10349;48.666;8.948;2024-01-16T14:07:52;0.30;99.90
20380;DHT22;10349;48.666;8.948;2024-01-16T14:10:22;0.30;99.90
20380;DHT22;10349;48.666;8.948;2024-01-16T14:12:49;0.30;99.90
20380;DHT22;10349;48.666;8.948;2024-01-16T14:15:16;0.30;99.90
20380;DHT22;10349;48.666;8.948;2024-01-16T14:17:48;0.30;99.90
20380;DHT22;10349;48.666;8.948;2024-01-16T14:20:15;0.20;99.90
20380;DHT22;10349;48.666;8.948;2024-01-16T14:22:41;0.30;99.90
20380;DHT22;10349;48.666;8.948;2024-01-16T14:25:11;0.30;99.90
20380;DHT22;10349;48.666;8.948;2024-01-16T14:27:42;0.30;99.90
20380;DHT22;10349;48.666;8.948;2024-01-16T14:30:12;0.20;99.90
20380;DHT22;10349;48.666;8.948;2024-01-16T14:32:40;0.20;99.90
20380;DHT22;10349;48.666;8.948;2024-01-16T14:35:07;0.20;99.90
20380;DHT22;10349;48.666;8.948;2024-01-16T14:37:35;0.10;99.90
20380;DHT22;10349;48.666;8.948;2024-01-16T14:40:02;0.10;99.90
20380;DHT22;10349;48.666;8.948;2024-01-16T14:42:29;0.10;99.90
20380;DHT22;10349;48.666;8.948;2024-01-16T14:44:55;0.10;99.90
20380;DHT22;10349;48.666;8.948;2024-01-16T14:47:20;0.00;99.90
20380;DHT22;10349;48.666;8.948;2024-01-16T14:49:46;0.00;99.90
20380;DHT22;10349;48.666;8.948;2024-01-16T14:52:13;0.00;99.90
20380;DHT22;10349;48.666;8.948;2024-01-16T14:54:39;0.00;99.90
20380;DHT22;10349;48.666;8.948;2024-01-16T14:57:05;-0.10;99.90
20380;DHT22;10349;48.666;8.948;2024-01-16T14:59:32;-0.10;99.90
20380;DHT22;10349;48.666;8.948;2024-01-16T15:01:58;-0.10;99.90
20380;DHT22;10349;48.666;8.948;2024-01-16T15:04:24;-0.10;99.90
20380;DHT22;10349;48.666;8.948;2024-01-16T15:06:49;-0.20;99.90
20380;DHT22;10349;48.666;8.948;2024-01-16T15:09:18;-0.20;99.90
20380;DHT22;10349;48.666;8.948;2024-01-16T15:11:45;-0.20;99.90
20380;DHT22;10349;48.666;8.948;2024-01-16T15:14:13;-0.20;99.90
20380;DHT22;10349;48.666;8.948;2024-01-16T15:16:39;-0.20;99.90
20380;DHT22;10349;48.666;8.948;2024-01-16T15:19:04;-0.20;99.90
20380;DHT22;10349;48.666;8.948;2024-01-16T15:21:30;-0.10;99.90
20380;DHT22;10349;48.666;8.948;2024-01-16T15:23:56;-0.10;99.90
20380;DHT22;10349;48.666;8.948;2024-01-16T15:26:22;-0.10;99.90
20380;DHT22;10349;48.666;8.948;2024-01-16T15:28:47;-0.20;99.90
20380;DHT22;10349;48.666;8.948;2024-01-16T15:31:13;-0.20;99.90
20380;DHT22;10349;48.666;8.948;2024-01-16T15:33:39;-0.30;99.90
20380;DHT22;10349;48.666;8.948;2024-01-16T15:36:05;-0.30;99.90
20380;DHT22;10349;48.666;8.948;2024-01-16T15:38:31;-0.30;99.90
20380;DHT22;10349;48.666;8.948;2024-01-16T15:40:57;-0.30;99.90
20380;DHT22;10349;48.666;8.948;2024-01-16T15:43:23;-0.40;99.90